createdAt,value
2022-11-07T00:00:32.535Z,10.60
2022-11-07T00:01:32.575Z,10.60
2022-11-07T00:02:32.575Z,10.57
2022-11-07T00:03:32.480Z,10.55
2022-11-07T00:04:32.473Z,10.57
2022-11-07T00:05:32.459Z,10.54
2022-11-07T00:06:32.444Z,10.52
2022-11-07T00:07:32.435Z,10.55
2022-11-07T00:08:32.421Z,10.54
2022-11-07T00:09:32.412Z,10.55
2022-11-07T00:10:32.439Z,10.57
2022-11-07T00:11:32.392Z,10.55
2022-11-07T00:12:32.381Z,10.57
2022-11-07T00:13:32.369Z,10.60
2022-11-07T00:14:32.357Z,10.60
2022-11-07T00:15:32.439Z,10.57
2022-11-07T00:16:32.360Z,10.58
2022-11-07T00:17:32.330Z,10.57
2022-11-07T00:18:32.311Z,10.60
2022-11-07T00:19:32.311Z,10.58
2022-11-07T00:20:32.288Z,10.60
2022-11-07T00:21:32.281Z,10.60
2022-11-07T00:22:32.267Z,10.62
2022-11-07T00:23:32.258Z,10.62
2022-11-07T00:24:32.246Z,10.60
2022-11-07T00:25:32.239Z,10.62
2022-11-07T00:26:32.222Z,10.66
2022-11-07T00:27:32.278Z,10.65
2022-11-07T00:28:32.204Z,10.63
2022-11-07T00:29:32.192Z,10.68
2022-11-07T00:30:32.180Z,10.70
2022-11-07T00:31:32.176Z,10.75
2022-11-07T00:32:32.181Z,10.78
2022-11-07T00:33:32.145Z,10.83
2022-11-07T00:34:32.133Z,10.78
2022-11-07T00:35:32.126Z,10.81
2022-11-07T00:36:32.113Z,10.78
2022-11-07T00:37:32.107Z,10.80
2022-11-07T00:38:32.087Z,10.78
2022-11-07T00:39:32.078Z,10.78
2022-11-07T00:40:32.069Z,10.76
2022-11-07T00:41:32.061Z,10.76
2022-11-07T00:42:32.045Z,10.78
2022-11-07T00:43:32.039Z,10.78
2022-11-07T00:44:32.022Z,10.78
2022-11-07T00:45:32.017Z,10.81
2022-11-07T00:46:31.999Z,10.81
2022-11-07T00:47:31.995Z,10.83
2022-11-07T00:48:32.000Z,10.81
2022-11-07T00:49:31.970Z,10.81
2022-11-07T00:50:31.956Z,10.84
2022-11-07T00:51:31.946Z,10.83
2022-11-07T00:52:31.933Z,10.83
2022-11-07T00:53:31.924Z,10.84
2022-11-07T00:54:31.912Z,10.86
2022-11-07T00:55:31.902Z,10.88
2022-11-07T00:56:31.887Z,10.87
2022-11-07T00:57:31.878Z,10.87
2022-11-07T00:58:31.868Z,10.90
2022-11-07T00:59:31.856Z,10.90
2022-11-07T01:00:31.843Z,10.88
2022-11-07T01:01:32.220Z,10.90
2022-11-07T01:02:32.065Z,10.88
2022-11-07T01:03:31.816Z,10.87
2022-11-07T01:04:31.829Z,10.90
2022-11-07T01:05:31.791Z,10.93
2022-11-07T01:06:31.776Z,10.90
2022-11-07T01:07:31.768Z,10.90
2022-11-07T01:08:31.756Z,10.90
2022-11-07T01:09:31.745Z,10.88
2022-11-07T01:10:31.736Z,10.93
2022-11-07T01:11:31.724Z,10.91
2022-11-07T01:12:31.707Z,10.94
2022-11-07T01:13:31.700Z,10.93
2022-11-07T01:14:31.689Z,10.91
2022-11-07T01:15:31.674Z,10.91
2022-11-07T01:16:31.666Z,10.94
2022-11-07T01:17:31.654Z,10.94
2022-11-07T01:18:31.646Z,10.95
2022-11-07T01:19:31.637Z,10.94
2022-11-07T01:20:31.741Z,10.98
2022-11-07T01:21:31.609Z,10.93
2022-11-07T01:22:31.600Z,10.94
2022-11-07T01:23:31.587Z,10.94
2022-11-07T01:24:31.586Z,10.95
2022-11-07T01:25:31.569Z,11.03
2022-11-07T01:26:31.559Z,11.03
2022-11-07T01:27:31.543Z,11.05
2022-11-07T01:28:31.534Z,11.03
2022-11-07T01:29:31.523Z,11.05
2022-11-07T01:30:31.513Z,11.05
2022-11-07T01:31:31.498Z,11.12
2022-11-07T01:32:31.488Z,11.12
2022-11-07T01:33:31.477Z,11.12
2022-11-07T01:34:31.468Z,11.12
2022-11-07T01:35:31.460Z,11.12
2022-11-07T01:36:31.562Z,11.17
2022-11-07T01:37:31.435Z,11.16
2022-11-07T01:38:31.423Z,11.12
2022-11-07T01:39:31.409Z,11.12
2022-11-07T01:40:31.401Z,11.12
2022-11-07T01:41:31.393Z,11.16
2022-11-07T01:42:31.379Z,11.11
2022-11-07T01:43:31.385Z,11.17
2022-11-07T01:44:31.355Z,11.19
2022-11-07T01:45:31.343Z,11.16
2022-11-07T01:46:31.333Z,11.13
2022-11-07T01:47:31.340Z,11.16
2022-11-07T01:48:31.312Z,11.17
2022-11-07T01:49:31.301Z,11.17
2022-11-07T01:50:31.288Z,11.19
2022-11-07T01:51:31.275Z,11.21
2022-11-07T01:52:31.290Z,11.21
2022-11-07T01:53:31.256Z,11.23
2022-11-07T01:54:31.248Z,11.23
2022-11-07T01:55:31.235Z,11.27
2022-11-07T01:56:31.221Z,11.27
2022-11-07T01:57:31.219Z,11.28
2022-11-07T01:58:31.203Z,11.30
2022-11-07T01:59:31.187Z,11.30
2022-11-07T02:00:31.179Z,11.30
2022-11-07T02:01:31.297Z,11.35
2022-11-07T02:02:31.376Z,11.31
2022-11-07T02:03:31.145Z,11.31
2022-11-07T02:04:31.135Z,11.35
2022-11-07T02:05:31.120Z,11.38
2022-11-07T02:06:31.114Z,11.44
2022-11-07T02:07:31.099Z,11.44
2022-11-07T02:08:31.199Z,11.49
2022-11-07T02:09:31.077Z,11.51
2022-11-07T02:10:31.072Z,11.51
2022-11-07T02:11:31.055Z,11.56
2022-11-07T02:12:31.044Z,11.59
2022-11-07T02:13:31.035Z,11.56
2022-11-07T02:14:31.023Z,11.54
2022-11-07T02:15:31.007Z,11.53
2022-11-07T02:16:30.999Z,11.54
2022-11-07T02:17:30.987Z,11.48
2022-11-07T02:18:30.978Z,11.46
2022-11-07T02:19:30.966Z,11.48
2022-11-07T02:20:30.957Z,11.45
2022-11-07T02:21:30.944Z,11.42
2022-11-07T02:22:30.940Z,11.49
2022-11-07T02:23:30.921Z,11.45
2022-11-07T02:24:30.935Z,11.48
2022-11-07T02:25:30.900Z,11.45
2022-11-07T02:26:30.889Z,11.45
2022-11-07T02:27:30.878Z,11.45
2022-11-07T02:28:30.869Z,11.49
2022-11-07T02:29:30.854Z,11.48
2022-11-07T02:30:30.852Z,11.48
2022-11-07T02:31:30.832Z,11.45
2022-11-07T02:32:30.823Z,11.48
2022-11-07T02:33:30.811Z,11.51
2022-11-07T02:34:30.803Z,11.46
2022-11-07T02:35:30.792Z,11.48
2022-11-07T02:36:30.778Z,11.41
2022-11-07T02:37:30.770Z,11.38
2022-11-07T02:38:30.758Z,11.35
2022-11-07T02:39:30.757Z,11.33
2022-11-07T02:40:30.758Z,11.23
2022-11-07T02:41:30.721Z,11.26
2022-11-07T02:42:30.712Z,11.21
2022-11-07T02:43:30.717Z,11.17
2022-11-07T02:44:30.692Z,11.11
2022-11-07T02:45:30.676Z,11.08
2022-11-07T02:46:30.695Z,11.02
2022-11-07T02:47:30.654Z,10.99
2022-11-07T02:48:30.646Z,10.98
2022-11-07T02:49:30.633Z,10.98
2022-11-07T02:50:30.625Z,10.98
2022-11-07T02:51:30.610Z,10.98
2022-11-07T02:52:30.600Z,10.94
2022-11-07T02:53:30.588Z,11.02
2022-11-07T02:54:30.578Z,11.03
2022-11-07T02:55:30.570Z,11.06
2022-11-07T02:56:30.580Z,11.05
2022-11-07T02:57:30.546Z,11.03
2022-11-07T02:58:30.533Z,11.03
2022-11-07T02:59:30.522Z,11.09
2022-11-07T03:00:30.513Z,11.16
2022-11-07T03:01:30.676Z,11.19
2022-11-07T03:02:30.694Z,11.19
2022-11-07T03:03:30.478Z,11.20
2022-11-07T03:04:30.466Z,11.21
2022-11-07T03:05:30.454Z,11.23
2022-11-07T03:06:30.446Z,11.24
2022-11-07T03:07:30.432Z,11.24
2022-11-07T03:08:30.425Z,11.27
2022-11-07T03:09:30.412Z,11.27
2022-11-07T03:10:30.401Z,11.30
2022-11-07T03:11:30.390Z,11.30
2022-11-07T03:12:30.399Z,11.35
2022-11-07T03:13:30.364Z,11.38
2022-11-07T03:14:30.403Z,11.39
2022-11-07T03:15:30.342Z,11.41
2022-11-07T03:16:30.336Z,11.38
2022-11-07T03:17:30.321Z,11.41
2022-11-07T03:18:30.314Z,11.38
2022-11-07T03:19:30.299Z,11.30
2022-11-07T03:20:30.288Z,11.24
2022-11-07T03:21:30.276Z,11.20
2022-11-07T03:22:30.266Z,11.19
2022-11-07T03:23:30.254Z,11.13
2022-11-07T03:24:30.243Z,11.13
2022-11-07T03:25:30.234Z,11.13
2022-11-07T03:26:30.222Z,11.13
2022-11-07T03:27:30.213Z,11.19
2022-11-07T03:28:30.224Z,11.21
2022-11-07T03:29:30.185Z,11.20
2022-11-07T03:30:30.176Z,11.19
2022-11-07T03:31:30.164Z,11.20
2022-11-07T03:32:30.154Z,11.20
2022-11-07T03:33:30.144Z,11.24
2022-11-07T03:34:30.133Z,11.26
2022-11-07T03:35:30.120Z,11.35
2022-11-07T03:36:30.108Z,11.38
2022-11-07T03:37:30.102Z,11.38
2022-11-07T03:38:30.092Z,11.39
2022-11-07T03:39:30.084Z,11.44
2022-11-07T03:40:30.065Z,11.38
2022-11-07T03:41:30.253Z,11.35
2022-11-07T03:42:30.043Z,11.38
2022-11-07T03:43:30.286Z,11.28
2022-11-07T03:44:30.045Z,11.26
2022-11-07T03:45:30.110Z,11.17
2022-11-07T03:46:30.000Z,11.13
2022-11-07T03:47:29.987Z,11.12
2022-11-07T03:48:29.977Z,11.08
2022-11-07T03:49:29.965Z,11.05
2022-11-07T03:50:29.955Z,10.99
2022-11-07T03:51:29.946Z,10.95
2022-11-07T03:52:29.933Z,10.90
2022-11-07T03:53:29.921Z,10.90
2022-11-07T03:54:29.913Z,10.91
2022-11-07T03:55:29.896Z,10.88
2022-11-07T03:56:29.892Z,10.84
2022-11-07T03:57:29.876Z,10.87
2022-11-07T03:58:29.866Z,10.86
2022-11-07T03:59:29.855Z,10.93
2022-11-07T04:00:29.867Z,10.94
2022-11-07T04:01:29.964Z,10.98
2022-11-07T04:02:29.915Z,10.94
2022-11-07T04:03:29.812Z,10.93
2022-11-07T04:04:29.799Z,10.93
2022-11-07T04:05:29.787Z,10.93
2022-11-07T04:06:29.776Z,10.94
2022-11-07T04:07:29.765Z,11.02
2022-11-07T04:08:29.754Z,11.06
2022-11-07T04:09:29.744Z,11.03
2022-11-07T04:10:29.731Z,11.03
2022-11-07T04:11:29.719Z,11.03
2022-11-07T04:12:29.709Z,11.03
2022-11-07T04:13:29.694Z,11.08
2022-11-07T04:14:29.686Z,11.11
2022-11-07T04:15:29.677Z,11.08
2022-11-07T04:16:29.688Z,11.06
2022-11-07T04:17:29.650Z,11.03
2022-11-07T04:18:29.641Z,11.03
2022-11-07T04:19:29.629Z,10.98
2022-11-07T04:20:29.620Z,10.98
2022-11-07T04:21:29.607Z,10.98
2022-11-07T04:22:29.598Z,10.95
2022-11-07T04:23:29.584Z,11.01
2022-11-07T04:24:29.576Z,10.99
2022-11-07T04:25:29.563Z,11.03
2022-11-07T04:26:29.552Z,11.03
2022-11-07T04:27:29.540Z,11.03
2022-11-07T04:28:29.530Z,11.09
2022-11-07T04:29:29.518Z,11.16
2022-11-07T04:30:29.507Z,11.20
2022-11-07T04:31:29.497Z,11.23
2022-11-07T04:32:29.508Z,11.21
2022-11-07T04:33:29.482Z,11.19
2022-11-07T04:34:29.464Z,11.17
2022-11-07T04:35:29.449Z,11.09
2022-11-07T04:36:29.452Z,11.06
2022-11-07T04:37:29.427Z,10.99
2022-11-07T04:38:29.418Z,10.93
2022-11-07T04:39:29.407Z,10.90
2022-11-07T04:40:29.415Z,10.91
2022-11-07T04:41:29.388Z,10.88
2022-11-07T04:42:29.376Z,10.86
2022-11-07T04:43:29.360Z,10.81
2022-11-07T04:44:29.355Z,10.81
2022-11-07T04:45:29.338Z,10.81
2022-11-07T04:46:29.331Z,10.76
2022-11-07T04:47:29.316Z,10.72
2022-11-07T04:48:29.330Z,10.70
2022-11-07T04:49:29.296Z,10.70
2022-11-07T04:50:29.286Z,10.72
2022-11-07T04:51:29.272Z,10.75
2022-11-07T04:52:29.264Z,10.80
2022-11-07T04:53:29.249Z,10.87
2022-11-07T04:54:29.242Z,10.90
2022-11-07T04:55:29.227Z,11.01
2022-11-07T04:56:34.168Z,11.05
2022-11-07T04:57:29.217Z,11.09
2022-11-07T04:58:29.196Z,11.17
2022-11-07T04:59:29.183Z,11.20
2022-11-07T05:00:29.173Z,11.23
2022-11-07T05:01:29.246Z,11.23
2022-11-07T05:02:29.302Z,11.24
2022-11-07T05:03:29.141Z,11.23
2022-11-07T05:04:29.235Z,11.23
2022-11-07T05:05:29.120Z,11.23
2022-11-07T05:06:29.117Z,11.26
2022-11-07T05:07:29.242Z,11.24
2022-11-07T05:08:29.085Z,11.27
2022-11-07T05:09:29.076Z,11.27
2022-11-07T05:10:29.060Z,11.30
2022-11-07T05:11:29.050Z,11.31
2022-11-07T05:12:29.040Z,11.38
2022-11-07T05:13:29.031Z,11.39
2022-11-07T05:14:29.022Z,11.41
2022-11-07T05:15:29.015Z,11.41
2022-11-07T05:16:28.996Z,11.39
2022-11-07T05:17:29.070Z,11.38
2022-11-07T05:18:28.975Z,11.35
2022-11-07T05:19:28.962Z,11.36
2022-11-07T05:20:28.973Z,11.36
2022-11-07T05:21:28.939Z,11.39
2022-11-07T05:22:28.930Z,11.41
2022-11-07T05:23:28.917Z,11.39
2022-11-07T05:24:28.979Z,11.39
2022-11-07T05:25:28.891Z,11.42
2022-11-07T05:26:28.884Z,11.44
2022-11-07T05:27:28.872Z,11.42
2022-11-07T05:28:36.950Z,11.51
2022-11-07T05:29:29.910Z,11.57
2022-11-07T05:30:28.838Z,11.62
2022-11-07T05:31:28.831Z,11.60
2022-11-07T05:32:28.814Z,11.62
2022-11-07T05:33:28.805Z,11.63
2022-11-07T05:34:28.812Z,11.62
2022-11-07T05:35:28.824Z,11.59
2022-11-07T05:36:28.814Z,11.59
2022-11-07T05:37:28.771Z,11.60
2022-11-07T05:38:28.747Z,11.57
2022-11-07T05:39:28.739Z,11.57
2022-11-07T05:40:28.725Z,11.56
2022-11-07T05:41:28.715Z,11.57
2022-11-07T05:42:28.707Z,11.60
2022-11-07T05:43:28.695Z,11.54
2022-11-07T05:44:29.290Z,11.53
2022-11-07T05:45:28.674Z,11.57
2022-11-07T05:46:28.663Z,11.51
2022-11-07T05:47:28.650Z,11.49
2022-11-07T05:48:28.645Z,11.49
2022-11-07T05:49:28.628Z,11.45
2022-11-07T05:50:28.639Z,11.49
2022-11-07T05:51:28.639Z,11.51
2022-11-07T05:52:28.633Z,11.49
2022-11-07T05:53:28.676Z,11.53
2022-11-07T05:54:28.572Z,11.56
2022-11-07T05:55:28.562Z,11.53
2022-11-07T05:56:28.547Z,11.54
2022-11-07T05:57:28.543Z,11.53
2022-11-07T05:58:28.531Z,11.54
2022-11-07T05:59:28.518Z,11.56
2022-11-07T06:00:28.507Z,11.54
2022-11-07T06:01:28.566Z,11.56
2022-11-07T06:02:28.759Z,11.59
2022-11-07T06:03:28.479Z,11.64
2022-11-07T06:04:28.461Z,11.63
2022-11-07T06:05:28.466Z,11.62
2022-11-07T06:06:28.438Z,11.63
2022-11-07T06:07:28.440Z,11.66
2022-11-07T06:08:28.439Z,11.67
2022-11-07T06:09:28.411Z,11.67
2022-11-07T06:10:28.395Z,11.64
2022-11-07T06:11:28.385Z,11.66
2022-11-07T06:12:28.375Z,11.62
2022-11-07T06:13:28.365Z,11.60
2022-11-07T06:14:28.350Z,11.63
2022-11-07T06:15:28.342Z,11.59
2022-11-07T06:16:28.330Z,11.59
2022-11-07T06:17:28.318Z,11.60
2022-11-07T06:18:28.308Z,11.60
2022-11-07T06:19:28.295Z,11.60
2022-11-07T06:20:28.283Z,11.67
2022-11-07T06:21:28.276Z,11.70
2022-11-07T06:22:28.261Z,11.70
2022-11-07T06:23:28.253Z,11.72
2022-11-07T06:24:28.465Z,11.69
2022-11-07T06:25:28.232Z,11.75
2022-11-07T06:26:28.216Z,11.74
2022-11-07T06:27:28.209Z,11.69
2022-11-07T06:28:28.198Z,11.70
2022-11-07T06:29:28.194Z,11.67
2022-11-07T06:30:28.177Z,11.62
2022-11-07T06:31:28.161Z,11.57
2022-11-07T06:32:28.152Z,11.53
2022-11-07T06:33:28.142Z,11.48
2022-11-07T06:34:28.131Z,11.46
2022-11-07T06:35:28.119Z,11.48
2022-11-07T06:36:28.108Z,11.48
2022-11-07T06:37:28.098Z,11.42
2022-11-07T06:38:28.084Z,11.45
2022-11-07T06:39:28.076Z,11.42
2022-11-07T06:40:28.174Z,11.39
2022-11-07T06:41:28.054Z,11.41
2022-11-07T06:42:28.039Z,11.39
2022-11-07T06:43:31.423Z,11.35
2022-11-07T06:44:28.018Z,11.35
2022-11-07T06:45:28.009Z,11.28
2022-11-07T06:46:27.998Z,11.28
2022-11-07T06:47:27.986Z,11.35
2022-11-07T06:48:27.977Z,11.35
2022-11-07T06:49:27.965Z,11.31
2022-11-07T06:50:27.955Z,11.36
2022-11-07T06:51:27.975Z,11.35
2022-11-07T06:52:27.941Z,11.36
2022-11-07T06:53:27.969Z,11.35
2022-11-07T06:54:27.980Z,11.35
2022-11-07T06:55:28.062Z,11.33
2022-11-07T06:56:28.058Z,11.33
2022-11-07T06:57:28.010Z,11.35
2022-11-07T06:58:27.947Z,11.33
2022-11-07T06:59:27.921Z,11.33
2022-11-07T07:00:27.915Z,11.31
2022-11-07T07:01:27.995Z,11.31
2022-11-07T07:02:52.296Z,11.30
2022-11-07T07:03:27.809Z,11.35
2022-11-07T07:04:27.804Z,11.41
2022-11-07T07:05:27.795Z,11.46
2022-11-07T07:06:27.776Z,11.48
2022-11-07T07:07:27.767Z,11.49
2022-11-07T07:08:27.752Z,11.53
2022-11-07T07:09:27.761Z,11.54
2022-11-07T07:10:27.732Z,11.56
2022-11-07T07:11:27.721Z,11.56
2022-11-07T07:12:27.756Z,11.53
2022-11-07T07:13:27.702Z,11.49
2022-11-07T07:14:27.687Z,11.46
2022-11-07T07:15:27.676Z,11.48
2022-11-07T07:16:27.664Z,11.48
2022-11-07T07:17:27.655Z,11.54
2022-11-07T07:18:27.645Z,11.57
2022-11-07T07:19:27.632Z,11.60
2022-11-07T07:20:27.620Z,11.62
2022-11-07T07:21:27.609Z,11.63
2022-11-07T07:22:27.598Z,11.70
2022-11-07T07:23:27.587Z,11.69
2022-11-07T07:24:27.576Z,11.75
2022-11-07T07:25:27.583Z,11.78
2022-11-07T07:26:27.553Z,11.77
2022-11-07T07:27:27.544Z,11.81
2022-11-07T07:28:27.647Z,11.87
2022-11-07T07:29:27.521Z,11.88
2022-11-07T07:30:27.508Z,11.96
2022-11-07T07:31:27.499Z,11.98
2022-11-07T07:32:27.486Z,12.01
2022-11-07T07:33:27.477Z,12.04
2022-11-07T07:34:27.465Z,12.07
2022-11-07T07:35:27.459Z,12.11
2022-11-07T07:36:27.442Z,12.13
2022-11-07T07:37:27.433Z,12.07
2022-11-07T07:38:27.422Z,12.12
2022-11-07T07:39:27.412Z,12.11
2022-11-07T07:40:27.398Z,12.13
2022-11-07T07:41:27.389Z,12.16
2022-11-07T07:42:27.374Z,12.19
2022-11-07T07:43:27.371Z,12.18
2022-11-07T07:44:27.469Z,12.19
2022-11-07T07:45:27.341Z,12.13
2022-11-07T07:46:27.329Z,12.08
2022-11-07T07:47:27.380Z,12.16
2022-11-07T07:48:27.309Z,12.16
2022-11-07T07:49:27.300Z,12.26
2022-11-07T07:50:27.354Z,12.34
2022-11-07T07:51:27.277Z,12.34
2022-11-07T07:52:27.272Z,12.41
2022-11-07T07:53:27.252Z,12.44
2022-11-07T07:54:27.249Z,12.44
2022-11-07T07:55:27.234Z,12.52
2022-11-07T07:56:27.218Z,12.54
2022-11-07T07:57:27.212Z,12.58
2022-11-07T07:58:27.206Z,12.66
2022-11-07T07:59:27.192Z,12.67
2022-11-07T08:00:27.400Z,12.74
2022-11-07T08:01:27.262Z,12.81
2022-11-07T08:02:27.280Z,12.89
2022-11-07T08:03:31.964Z,12.99
2022-11-07T08:04:27.133Z,13.01
2022-11-07T08:05:27.128Z,13.01
2022-11-07T08:06:27.115Z,13.03
2022-11-07T08:07:27.102Z,13.01
2022-11-07T08:08:27.091Z,13.01
2022-11-07T08:09:27.102Z,13.01
2022-11-07T08:10:41.658Z,13.06
2022-11-07T08:11:28.080Z,13.09
2022-11-07T08:12:27.042Z,13.22
2022-11-07T08:13:27.030Z,13.28
2022-11-07T08:14:27.020Z,13.41
2022-11-07T08:15:27.009Z,13.51
2022-11-07T08:16:27.116Z,13.41
2022-11-07T08:17:26.989Z,13.41
2022-11-07T08:18:26.976Z,13.35
2022-11-07T08:19:26.964Z,13.32
2022-11-07T08:20:26.958Z,13.24
2022-11-07T08:21:26.947Z,13.21
2022-11-07T08:22:26.933Z,13.19
2022-11-07T08:23:26.919Z,13.16
2022-11-07T08:24:26.907Z,13.17
2022-11-07T08:25:26.893Z,13.19
2022-11-07T08:26:26.884Z,13.29
2022-11-07T08:27:26.871Z,13.32
2022-11-07T08:28:26.859Z,13.35
2022-11-07T08:29:26.848Z,13.36
2022-11-07T08:30:26.834Z,13.38
2022-11-07T08:31:26.823Z,13.31
2022-11-07T08:32:26.835Z,13.25
2022-11-07T08:33:26.865Z,13.21
2022-11-07T08:34:26.790Z,13.21
2022-11-07T08:35:26.784Z,13.21
2022-11-07T08:36:26.770Z,13.16
2022-11-07T08:37:26.914Z,13.16
2022-11-07T08:38:26.950Z,13.16
2022-11-07T08:39:26.743Z,13.14
2022-11-07T08:40:26.730Z,13.17
2022-11-07T08:41:26.723Z,13.22
2022-11-07T08:42:26.707Z,13.21
2022-11-07T08:43:26.699Z,13.24
2022-11-07T08:44:26.681Z,13.25
2022-11-07T08:45:26.673Z,13.32
2022-11-07T08:46:26.662Z,13.32
2022-11-07T08:47:26.650Z,13.32
2022-11-07T08:48:26.685Z,13.35
2022-11-07T08:49:26.670Z,13.36
2022-11-07T08:50:26.615Z,13.38
2022-11-07T08:51:26.603Z,13.44
2022-11-07T08:52:26.589Z,13.47
2022-11-07T08:53:26.579Z,13.55
2022-11-07T08:54:26.569Z,13.53
2022-11-07T08:55:26.558Z,13.61
2022-11-07T08:56:26.541Z,13.68
2022-11-07T08:57:26.536Z,13.80
2022-11-07T08:58:30.035Z,13.88
2022-11-07T08:59:26.508Z,14.05
2022-11-07T09:00:26.499Z,14.13
2022-11-07T09:01:26.663Z,14.24
2022-11-07T09:04:26.630Z,14.26
2022-11-07T09:05:26.451Z,14.21
2022-11-07T09:06:26.465Z,14.19
2022-11-07T09:07:26.447Z,14.09
2022-11-07T09:08:26.413Z,14.05
2022-11-07T09:09:26.402Z,14.05
2022-11-07T09:10:26.388Z,14.11
2022-11-07T09:11:26.384Z,14.19
2022-11-07T09:12:26.369Z,14.24
2022-11-07T09:13:26.358Z,14.34
2022-11-07T09:14:26.362Z,14.31
2022-11-07T09:15:26.343Z,14.29
2022-11-07T09:16:26.324Z,14.21
2022-11-07T09:17:26.317Z,14.21
2022-11-07T09:18:26.307Z,14.20
2022-11-07T09:19:26.290Z,14.19
2022-11-07T09:20:26.302Z,14.13
2022-11-07T09:21:26.268Z,14.08
2022-11-07T09:22:26.257Z,14.09
2022-11-07T09:23:26.247Z,14.17
2022-11-07T09:24:26.234Z,14.13
2022-11-07T09:25:26.226Z,14.12
2022-11-07T09:26:26.212Z,14.12
2022-11-07T09:27:26.205Z,14.17
2022-11-07T09:28:26.200Z,14.21
2022-11-07T09:29:26.179Z,14.13
2022-11-07T09:30:26.169Z,14.19
2022-11-07T09:31:26.163Z,14.21
2022-11-07T09:32:43.961Z,14.16
2022-11-07T09:33:26.137Z,14.13
2022-11-07T09:34:26.127Z,14.16
2022-11-07T09:35:26.118Z,14.09
2022-11-07T09:36:26.133Z,14.12
2022-11-07T09:37:26.093Z,14.04
2022-11-07T09:38:26.081Z,14.02
2022-11-07T09:39:26.068Z,14.02
2022-11-07T09:40:26.057Z,13.99
2022-11-07T09:41:26.047Z,14.04
2022-11-07T09:42:26.038Z,13.98
2022-11-07T09:43:26.025Z,13.94
2022-11-07T09:44:30.924Z,14.04
2022-11-07T09:45:26.004Z,13.98
2022-11-07T09:46:25.994Z,14.02
2022-11-07T09:47:25.981Z,13.98
2022-11-07T09:48:25.971Z,13.96
2022-11-07T09:49:25.960Z,14.01
2022-11-07T09:50:25.949Z,13.91
2022-11-07T09:51:25.943Z,13.93
2022-11-07T09:52:25.952Z,13.90
2022-11-07T09:53:25.918Z,13.93
2022-11-07T09:54:25.910Z,13.94
2022-11-07T09:55:25.893Z,13.91
2022-11-07T09:56:25.883Z,13.96
2022-11-07T09:57:25.876Z,13.94
2022-11-07T09:58:25.864Z,13.93
2022-11-07T09:59:25.851Z,13.93
2022-11-07T10:00:25.841Z,13.90
2022-11-07T10:01:26.087Z,13.94
2022-11-07T10:02:25.898Z,13.90
2022-11-07T10:03:25.808Z,13.87
2022-11-07T10:04:26.884Z,13.84
2022-11-07T10:05:25.792Z,13.88
2022-11-07T10:06:25.774Z,13.83
2022-11-07T10:07:25.763Z,13.88
2022-11-07T10:08:25.781Z,13.86
2022-11-07T10:09:25.743Z,13.87
2022-11-07T10:10:25.729Z,13.93
2022-11-07T10:11:25.721Z,13.91
2022-11-07T10:12:25.711Z,13.94
2022-11-07T10:13:25.694Z,13.90
2022-11-07T10:14:25.688Z,13.94
2022-11-07T10:15:25.674Z,14.04
2022-11-07T10:16:25.663Z,14.02
2022-11-07T10:17:25.660Z,14.04
2022-11-07T10:18:25.642Z,14.12
2022-11-07T10:19:25.640Z,14.19
2022-11-07T10:20:25.729Z,14.20
2022-11-07T10:21:41.001Z,14.23
2022-11-07T10:22:26.625Z,14.24
2022-11-07T10:23:25.588Z,14.16
2022-11-07T10:24:25.598Z,14.16
2022-11-07T10:25:25.562Z,14.17
2022-11-07T10:26:25.558Z,14.13
2022-11-07T10:27:25.544Z,14.09
2022-11-07T10:28:25.534Z,14.13
2022-11-07T10:29:25.523Z,14.13
2022-11-07T10:30:25.509Z,14.19
2022-11-07T10:31:25.497Z,14.30
2022-11-07T10:32:25.492Z,14.34
2022-11-07T10:33:25.481Z,14.34
2022-11-07T10:34:25.484Z,14.31
2022-11-07T10:35:25.454Z,14.30
2022-11-07T10:36:25.448Z,14.30
2022-11-07T10:37:25.434Z,14.39
2022-11-07T10:38:25.426Z,14.39
2022-11-07T10:39:25.411Z,14.46
2022-11-07T10:40:25.429Z,14.56
2022-11-07T10:41:25.390Z,14.56
2022-11-07T10:42:25.383Z,14.61
2022-11-07T10:43:25.373Z,14.71
2022-11-07T10:44:25.437Z,14.80
2022-11-07T10:45:25.349Z,14.78
2022-11-07T10:46:25.339Z,14.78
2022-11-07T10:47:25.359Z,14.75
2022-11-07T10:48:25.312Z,14.75
2022-11-07T10:49:25.302Z,14.71
2022-11-07T10:50:25.292Z,14.82
2022-11-07T10:51:25.278Z,14.86
2022-11-07T10:52:25.271Z,14.98
2022-11-07T10:53:25.258Z,15.03
2022-11-07T10:54:25.249Z,15.00
2022-11-07T10:55:25.242Z,15.11
2022-11-07T10:56:25.356Z,15.12
2022-11-07T10:57:25.213Z,15.03
2022-11-07T10:58:25.215Z,14.97
2022-11-07T10:59:25.188Z,14.95
2022-11-07T11:00:25.183Z,14.95
2022-11-07T11:01:25.335Z,14.95
2022-11-07T11:02:25.294Z,14.93
2022-11-07T11:03:28.991Z,14.93
2022-11-07T11:04:25.143Z,14.94
2022-11-07T11:05:25.124Z,14.95
2022-11-07T11:06:25.116Z,14.94
2022-11-07T11:07:28.376Z,14.85
2022-11-07T11:08:25.111Z,14.85
2022-11-07T11:09:25.130Z,14.72
2022-11-07T11:10:25.171Z,14.67
2022-11-07T11:11:25.260Z,14.63
2022-11-07T11:12:25.070Z,14.67
2022-11-07T11:13:25.036Z,14.63
2022-11-07T11:14:25.028Z,14.67
2022-11-07T11:15:25.018Z,14.67
2022-11-07T11:16:25.210Z,14.71
2022-11-07T11:17:25.040Z,14.79
2022-11-07T11:18:24.987Z,14.71
2022-11-07T11:19:24.968Z,14.67
2022-11-07T11:20:24.961Z,14.66
2022-11-07T11:21:24.948Z,14.66
2022-11-07T11:22:25.090Z,14.63
2022-11-07T11:23:24.922Z,14.61
2022-11-07T11:24:24.921Z,14.57
2022-11-07T11:25:24.904Z,14.61
2022-11-07T11:26:24.892Z,14.60
2022-11-07T11:27:25.241Z,14.59
2022-11-07T11:28:25.043Z,14.61
2022-11-07T11:29:25.110Z,14.60
2022-11-07T11:30:24.848Z,14.64
2022-11-07T11:31:25.047Z,14.71
2022-11-07T11:32:24.842Z,14.66
2022-11-07T11:33:24.813Z,14.60
2022-11-07T11:34:24.808Z,14.61
2022-11-07T11:35:24.793Z,14.66
2022-11-07T11:36:24.792Z,14.61
2022-11-07T11:37:24.796Z,14.56
2022-11-07T11:38:24.763Z,14.59
2022-11-07T11:39:24.748Z,14.63
2022-11-07T11:40:24.737Z,14.64
2022-11-07T11:41:24.729Z,14.66
2022-11-07T11:42:24.715Z,14.71
2022-11-07T11:43:24.704Z,14.82
2022-11-07T11:44:24.716Z,14.91
2022-11-07T11:45:24.681Z,15.04
2022-11-07T11:46:24.670Z,15.13
2022-11-07T11:47:24.662Z,15.27
2022-11-07T11:48:24.649Z,15.23
2022-11-07T11:49:24.637Z,15.23
2022-11-07T11:50:24.628Z,15.20
2022-11-07T11:51:24.613Z,15.25
2022-11-07T11:52:24.604Z,15.20
2022-11-07T11:53:24.595Z,15.22
2022-11-07T11:54:24.586Z,15.18
2022-11-07T11:55:24.570Z,15.22
2022-11-07T11:56:24.558Z,15.19
2022-11-07T11:57:24.554Z,15.09
2022-11-07T11:58:24.541Z,15.09
2022-11-07T11:59:24.525Z,14.97
2022-11-07T12:00:24.577Z,14.93
2022-11-07T12:02:24.582Z,14.78
2022-11-07T12:03:24.483Z,14.69
2022-11-07T12:04:24.473Z,14.63
2022-11-07T12:05:24.460Z,14.57
2022-11-07T12:06:24.452Z,14.52
2022-11-07T12:07:24.437Z,14.34
2022-11-07T12:08:24.428Z,14.23
2022-11-07T12:09:24.415Z,14.11
2022-11-07T12:10:24.407Z,14.02
2022-11-07T12:11:24.394Z,13.96
2022-11-07T12:12:24.386Z,13.86
2022-11-07T12:13:24.374Z,13.76
2022-11-07T12:14:24.365Z,13.79
2022-11-07T12:15:24.350Z,13.73
2022-11-07T12:16:24.364Z,13.71
2022-11-07T12:17:24.328Z,13.62
2022-11-07T12:18:24.319Z,13.59
2022-11-07T12:19:24.306Z,13.62
2022-11-07T12:20:24.307Z,13.55
2022-11-07T12:21:24.280Z,13.50
2022-11-07T12:22:24.271Z,13.55
2022-11-07T12:23:24.265Z,13.53
2022-11-07T12:24:24.251Z,13.55
2022-11-07T12:25:24.237Z,13.59
2022-11-07T12:26:24.231Z,13.65
2022-11-07T12:27:27.123Z,13.68
2022-11-07T12:28:24.201Z,13.76
2022-11-07T12:29:24.208Z,13.80
2022-11-07T12:30:24.182Z,13.72
2022-11-07T12:31:24.171Z,13.73
2022-11-07T12:32:24.179Z,13.73
2022-11-07T12:33:24.145Z,13.76
2022-11-07T12:34:24.138Z,13.71
2022-11-07T12:35:24.119Z,13.81
2022-11-07T12:36:24.112Z,13.79
2022-11-07T12:37:24.098Z,13.79
2022-11-07T12:38:24.088Z,13.83
2022-11-07T12:39:24.078Z,13.83
2022-11-07T12:40:24.068Z,13.84
2022-11-07T12:41:24.056Z,13.86
2022-11-07T12:42:24.045Z,13.94
2022-11-07T12:43:24.035Z,14.05
2022-11-07T12:44:24.027Z,14.12
2022-11-07T12:45:24.011Z,14.16
2022-11-07T12:46:24.005Z,14.17
2022-11-07T12:47:23.996Z,14.19
2022-11-07T12:48:24.012Z,14.05
2022-11-07T12:49:23.972Z,14.06
2022-11-07T12:50:23.961Z,14.06
2022-11-07T12:51:23.946Z,14.05
2022-11-07T12:52:23.933Z,14.04
2022-11-07T12:53:23.924Z,13.98
2022-11-07T12:54:23.916Z,13.93
2022-11-07T12:55:23.902Z,13.87